PrentiSS Brown — WDE6848 — position and weather

sailwx.info

Track history (hours):
 
Tides and Currents Weather Stations Pressure Air Temp Water Temp Dewpoint Dewpoint Depression Visibility Wind Speed Wind Dir Waves Ship Positions

PrentiSS Brown

Owner: Port City Marine Services Inc, Muskegon, MI. More information available from US FCC via Universal Licensing System and Coast Guard Vessel Documentation Center.

Last reported at 2017-Aug-21 08:00 UTC. Time now 2017-Aug-21 08:17 UTC.
Position N 45°19' W 085°18'.

; draft 7 m.

Type: Other ship. MMSI: 366922280.

Date/timePositionNaut miles runAvg speedWind from/ knotsBaromVisibWave heightAir tempDewpointWater temp
2017-Aug-21 08:00N 45°19' W 085°18'0 0.0
2017-Aug-21 07:30N 45°19' W 085°18'0 0.0
2017-Aug-21 07:00N 45°19' W 085°18'0 0.0
2017-Aug-21 06:30N 45°19' W 085°18'0 0.0
2017-Aug-21 06:00N 45°19' W 085°18'0 0.0
2017-Aug-21 05:30N 45°19' W 085°18'0 0.0
2017-Aug-21 05:00N 45°19' W 085°18'0 0.0
2017-Aug-21 04:30N 45°19' W 085°18'0 0.0
2017-Aug-21 04:00N 45°19' W 085°18'0 0.0
2017-Aug-21 03:30N 45°19' W 085°18'0 0.0
2017-Aug-21 03:00N 45°19' W 085°18'0 0.0
2017-Aug-21 02:30N 45°19' W 085°18'0 0.0
2017-Aug-21 02:00N 45°19' W 085°18'0 0.0
2017-Aug-21 01:30N 45°19' W 085°18'0 0.0
2017-Aug-21 01:00N 45°19' W 085°18'1 1.3
2017-Aug-21 00:30N 45°20' W 085°17'4 7.3
2017-Aug-21 00:00N 45°19' W 085°22'4 9.1
2017-Aug-20 23:30N 45°17' W 085°28'5 9.1
2017-Aug-20 23:00N 45°15' W 085°34'  
2017-Aug-17 18:34N 45°14' W 085°41'1 8.0
2017-Aug-17 18:30N 45°14' W 085°40'4 8.0
2017-Aug-17 18:00N 45°16' W 085°35'4 7.7
2017-Aug-17 17:30N 45°17' W 085°30'4 7.7
2017-Aug-17 17:00N 45°18' W 085°25'4 7.8
2017-Aug-17 16:30N 45°20' W 085°19'2 3.3
2017-Aug-17 16:00N 45°19' W 085°17'0 0.5
2017-Aug-17 15:30N 45°19' W 085°18'0 0.0
2017-Aug-17 15:00N 45°19' W 085°18'0 0.0
2017-Aug-17 14:30N 45°19' W 085°18'0 0.0
2017-Aug-17 14:00N 45°19' W 085°18'0 0.0
2017-Aug-17 13:30N 45°19' W 085°18'0 0.0
2017-Aug-17 13:00N 45°19' W 085°18'0 0.0
2017-Aug-17 12:30N 45°19' W 085°18'0 0.0
2017-Aug-17 12:00N 45°19' W 085°18'0 0.0
2017-Aug-17 11:30N 45°19' W 085°18'0 0.0
2017-Aug-17 11:00N 45°19' W 085°18'0 0.0
2017-Aug-17 10:31N 45°19' W 085°18'1 2.1
2017-Aug-17 10:00N 45°20' W 085°17'1 1.1
2017-Aug-17 09:31N 45°20' W 085°18'0 0.9
2017-Aug-17 09:01N 45°20' W 085°17'0 0.5
2017-Aug-17 08:30N 45°20' W 085°17'0 0.2
2017-Aug-17 08:00N 45°20' W 085°17'0 0.0
2017-Aug-17 07:30N 45°19' W 085°17'0 0.0
2017-Aug-17 07:00N 45°19' W 085°17'0 0.0
2017-Aug-17 06:30N 45°19' W 085°17'0 0.0
2017-Aug-17 06:01N 45°19' W 085°17'0 0.0
2017-Aug-17 05:30N 45°20' W 085°17'0 0.0
2017-Aug-17 05:00N 45°19' W 085°17'0 0.0
2017-Aug-17 04:30N 45°20' W 085°17'0 0.0
2017-Aug-17 04:01N 45°19' W 085°17'0 0.0
2017-Aug-17 03:30N 45°20' W 085°17'0 0.0
2017-Aug-17 03:00N 45°19' W 085°17'0 0.0
2017-Aug-17 02:30N 45°19' W 085°17'0 0.0
2017-Aug-17 02:00N 45°19' W 085°17'0 0.0
2017-Aug-17 01:30N 45°19' W 085°17'0 0.0
2017-Aug-17 01:00N 45°19' W 085°17'0 0.1
2017-Aug-17 00:30N 45°19' W 085°17'0 0.1
2017-Aug-17 00:00N 45°19' W 085°17'0 0.0
2017-Aug-16 23:30N 45°19' W 085°17'0 0.0
2017-Aug-16 23:00N 45°19' W 085°17'0 0.1
2017-Aug-16 22:30N 45°19' W 085°17'0 0.3
2017-Aug-16 22:00N 45°19' W 085°17'1 2.8
2017-Aug-16 21:30N 45°20' W 085°19'0 0.7
2017-Aug-16 21:00N 45°20' W 085°19'3 5.9
2017-Aug-16 20:30N 45°19' W 085°23'4 8.6
2017-Aug-16 20:00N 45°17' W 085°29'4 8.7
2017-Aug-16 19:30N 45°15' W 085°34'4 8.7
2017-Aug-16 19:01N 45°13' W 085°40'24 0.5
2017-Aug-14 19:17N 44°57' W 086°05'2 8.2
2017-Aug-14 19:00N 44°58' W 086°02'22 8.2
2017-Aug-14 16:20N 45°13' W 085°39'3 8.3
2017-Aug-14 16:00N 45°14' W 085°35'4 8.2
2017-Aug-14 15:30N 45°16' W 085°30'4 8.2
2017-Aug-14 15:00N 45°18' W 085°25'4 8.4
2017-Aug-14 14:31N 45°20' W 085°20'2 3.8
2017-Aug-14 14:00N 45°19' W 085°17'0 0.5
2017-Aug-14 13:30N 45°19' W 085°18'0 0.0
2017-Aug-14 13:00N 45°19' W 085°18'0 0.0
2017-Aug-14 12:30N 45°19' W 085°18'0 0.0
2017-Aug-14 12:00N 45°19' W 085°18'0 0.0
2017-Aug-14 11:30N 45°19' W 085°18'0 0.1
2017-Aug-14 11:00N 45°19' W 085°18'0 0.0
2017-Aug-14 10:30N 45°19' W 085°18'0 0.0
2017-Aug-14 10:00N 45°19' W 085°18'0 0.0
2017-Aug-14 09:30N 45°19' W 085°18'0 0.0
2017-Aug-14 09:00N 45°19' W 085°18'0 0.9
2017-Aug-14 08:30N 45°19' W 085°17'3 6.2
2017-Aug-14 08:00N 45°19' W 085°22'4 8.9
2017-Aug-14 07:30N 45°17' W 085°27'4 9.0
2017-Aug-14 07:01N 45°15' W 085°33'5 9.0
2017-Aug-14 06:30N 45°13' W 085°38'4 8.8
2017-Aug-14 06:00N 45°10' W 085°43'5 9.0
2017-Aug-14 05:29N 45°07' W 085°48'4 8.9
2017-Aug-14 05:00N 45°04' W 085°52'5 8.9
2017-Aug-14 04:29N 45°01' W 085°57'4 9.0
2017-Aug-14 04:00N 44°58' W 086°02'6 8.8
2017-Aug-14 03:22N 44°56' W 086°09'3 8.4
2017-Aug-14 02:59N 44°54' W 086°12'4 9.0
2017-Aug-14 02:30N 44°50' W 086°15'  
2017-Aug-11 18:44N 45°13' W 085°39'2 8.0
2017-Aug-11 18:30N 45°14' W 085°37'4 7.9
2017-Aug-11 18:00N 45°15' W 085°32'4 7.9
2017-Aug-11 17:30N 45°17' W 085°27'4 8.0
2017-Aug-11 17:00N 45°19' W 085°22'3 6.1
2017-Aug-11 16:30N 45°19' W 085°17'0 0.9
2017-Aug-11 16:00N 45°19' W 085°18'0 0.1
2017-Aug-11 15:30N 45°19' W 085°18'0 0.0
2017-Aug-11 15:00N 45°19' W 085°18'0 0.0
2017-Aug-11 14:00N 45°19' W 085°18'0 0.0
2017-Aug-11 13:30N 45°19' W 085°18'0 0.1
2017-Aug-11 13:00N 45°19' W 085°18'0 0.0
2017-Aug-11 12:30N 45°19' W 085°18'0 0.0
2017-Aug-11 12:00N 45°19' W 085°18'0 0.0
2017-Aug-11 11:30N 45°19' W 085°18'0 0.0
2017-Aug-11 11:00N 45°19' W 085°18'0 0.0
2017-Aug-11 10:30N 45°19' W 085°18'0 0.0
2017-Aug-11 10:00N 45°19' W 085°18'0 0.0
2017-Aug-11 09:30N 45°19' W 085°18'0 0.1
2017-Aug-11 09:00N 45°19' W 085°18'2 3.2
2017-Aug-11 08:30N 45°20' W 085°19'5 9.0
2017-Aug-11 08:00N 45°18' W 085°25'  
Track history (hours):
 
Tides and Currents Weather Stations Pressure Air Temp Water Temp Dewpoint Dewpoint Depression Visibility Wind Speed Wind Dir Waves Ship Positions

PrentiSS Brown

Owner: Port City Marine Services Inc, Muskegon, MI. More information available from US FCC via Universal Licensing System and Coast Guard Vessel Documentation Center.

Last reported at 2017-Aug-21 08:00 UTC. Time now 2017-Aug-21 08:17 UTC.
Position N 45°19' W 085°18'.

; draft 7 m.

Type: Other ship. MMSI: 366922280.

Date/timePositionNaut miles runAvg speedWind from/ knotsBaromVisibWave heightAir tempDewpointWater temp
2017-Aug-21 08:00N 45°19' W 085°18'0 0.0
2017-Aug-21 07:30N 45°19' W 085°18'0 0.0
2017-Aug-21 07:00N 45°19' W 085°18'0 0.0
2017-Aug-21 06:30N 45°19' W 085°18'0 0.0
2017-Aug-21 06:00N 45°19' W 085°18'0 0.0
2017-Aug-21 05:30N 45°19' W 085°18'0 0.0
2017-Aug-21 05:00N 45°19' W 085°18'0 0.0
2017-Aug-21 04:30N 45°19' W 085°18'0 0.0
2017-Aug-21 04:00N 45°19' W 085°18'0 0.0
2017-Aug-21 03:30N 45°19' W 085°18'0 0.0
2017-Aug-21 03:00N 45°19' W 085°18'0 0.0
2017-Aug-21 02:30N 45°19' W 085°18'0 0.0
2017-Aug-21 02:00N 45°19' W 085°18'0 0.0
2017-Aug-21 01:30N 45°19' W 085°18'0 0.0
2017-Aug-21 01:00N 45°19' W 085°18'1 1.3
2017-Aug-21 00:30N 45°20' W 085°17'4 7.3
2017-Aug-21 00:00N 45°19' W 085°22'4 9.1
2017-Aug-20 23:30N 45°17' W 085°28'5 9.1
2017-Aug-20 23:00N 45°15' W 085°34'  
2017-Aug-17 18:34N 45°14' W 085°41'1 8.0
2017-Aug-17 18:30N 45°14' W 085°40'4 8.0
2017-Aug-17 18:00N 45°16' W 085°35'4 7.7
2017-Aug-17 17:30N 45°17' W 085°30'4 7.7
2017-Aug-17 17:00N 45°18' W 085°25'4 7.8
2017-Aug-17 16:30N 45°20' W 085°19'2 3.3
2017-Aug-17 16:00N 45°19' W 085°17'0 0.5
2017-Aug-17 15:30N 45°19' W 085°18'0 0.0
2017-Aug-17 15:00N 45°19' W 085°18'0 0.0
2017-Aug-17 14:30N 45°19' W 085°18'0 0.0
2017-Aug-17 14:00N 45°19' W 085°18'0 0.0
2017-Aug-17 13:30N 45°19' W 085°18'0 0.0
2017-Aug-17 13:00N 45°19' W 085°18'0 0.0
2017-Aug-17 12:30N 45°19' W 085°18'0 0.0
2017-Aug-17 12:00N 45°19' W 085°18'0 0.0
2017-Aug-17 11:30N 45°19' W 085°18'0 0.0
2017-Aug-17 11:00N 45°19' W 085°18'0 0.0
2017-Aug-17 10:31N 45°19' W 085°18'1 2.1
2017-Aug-17 10:00N 45°20' W 085°17'1 1.1
2017-Aug-17 09:31N 45°20' W 085°18'0 0.9
2017-Aug-17 09:01N 45°20' W 085°17'0 0.5
2017-Aug-17 08:30N 45°20' W 085°17'0 0.2
2017-Aug-17 08:00N 45°20' W 085°17'0 0.0
2017-Aug-17 07:30N 45°19' W 085°17'0 0.0
2017-Aug-17 07:00N 45°19' W 085°17'0 0.0
2017-Aug-17 06:30N 45°19' W 085°17'0 0.0
2017-Aug-17 06:01N 45°19' W 085°17'0 0.0
2017-Aug-17 05:30N 45°20' W 085°17'0 0.0
2017-Aug-17 05:00N 45°19' W 085°17'0 0.0
2017-Aug-17 04:30N 45°20' W 085°17'0 0.0
2017-Aug-17 04:01N 45°19' W 085°17'0 0.0
2017-Aug-17 03:30N 45°20' W 085°17'0 0.0
2017-Aug-17 03:00N 45°19' W 085°17'0 0.0
2017-Aug-17 02:30N 45°19' W 085°17'0 0.0
2017-Aug-17 02:00N 45°19' W 085°17'0 0.0
2017-Aug-17 01:30N 45°19' W 085°17'0 0.0
2017-Aug-17 01:00N 45°19' W 085°17'0 0.1
2017-Aug-17 00:30N 45°19' W 085°17'0 0.1
2017-Aug-17 00:00N 45°19' W 085°17'0 0.0
2017-Aug-16 23:30N 45°19' W 085°17'0 0.0
2017-Aug-16 23:00N 45°19' W 085°17'0 0.1
2017-Aug-16 22:30N 45°19' W 085°17'0 0.3
2017-Aug-16 22:00N 45°19' W 085°17'1 2.8
2017-Aug-16 21:30N 45°20' W 085°19'0 0.7
2017-Aug-16 21:00N 45°20' W 085°19'3 5.9
2017-Aug-16 20:30N 45°19' W 085°23'4 8.6
2017-Aug-16 20:00N 45°17' W 085°29'4 8.7
2017-Aug-16 19:30N 45°15' W 085°34'4 8.7
2017-Aug-16 19:01N 45°13' W 085°40'24 0.5
2017-Aug-14 19:17N 44°57' W 086°05'2 8.2
2017-Aug-14 19:00N 44°58' W 086°02'22 8.2
2017-Aug-14 16:20N 45°13' W 085°39'3 8.3
2017-Aug-14 16:00N 45°14' W 085°35'4 8.2
2017-Aug-14 15:30N 45°16' W 085°30'4 8.2
2017-Aug-14 15:00N 45°18' W 085°25'4 8.4
2017-Aug-14 14:31N 45°20' W 085°20'2 3.8
2017-Aug-14 14:00N 45°19' W 085°17'0 0.5
2017-Aug-14 13:30N 45°19' W 085°18'0 0.0
2017-Aug-14 13:00N 45°19' W 085°18'0 0.0
2017-Aug-14 12:30N 45°19' W 085°18'0 0.0
2017-Aug-14 12:00N 45°19' W 085°18'0 0.0
2017-Aug-14 11:30N 45°19' W 085°18'0 0.1
2017-Aug-14 11:00N 45°19' W 085°18'0 0.0
2017-Aug-14 10:30N 45°19' W 085°18'0 0.0
2017-Aug-14 10:00N 45°19' W 085°18'0 0.0
2017-Aug-14 09:30N 45°19' W 085°18'0 0.0
2017-Aug-14 09:00N 45°19' W 085°18'0 0.9
2017-Aug-14 08:30N 45°19' W 085°17'3 6.2
2017-Aug-14 08:00N 45°19' W 085°22'4 8.9
2017-Aug-14 07:30N 45°17' W 085°27'4 9.0
2017-Aug-14 07:01N 45°15' W 085°33'5 9.0
2017-Aug-14 06:30N 45°13' W 085°38'4 8.8
2017-Aug-14 06:00N 45°10' W 085°43'5 9.0
2017-Aug-14 05:29N 45°07' W 085°48'4 8.9
2017-Aug-14 05:00N 45°04' W 085°52'5 8.9
2017-Aug-14 04:29N 45°01' W 085°57'4 9.0
2017-Aug-14 04:00N 44°58' W 086°02'6 8.8
2017-Aug-14 03:22N 44°56' W 086°09'3 8.4
2017-Aug-14 02:59N 44°54' W 086°12'4 9.0
2017-Aug-14 02:30N 44°50' W 086°15'  
2017-Aug-11 18:44N 45°13' W 085°39'2 8.0
2017-Aug-11 18:30N 45°14' W 085°37'4 7.9
2017-Aug-11 18:00N 45°15' W 085°32'4 7.9
2017-Aug-11 17:30N 45°17' W 085°27'4 8.0
2017-Aug-11 17:00N 45°19' W 085°22'3 6.1
2017-Aug-11 16:30N 45°19' W 085°17'0 0.9
2017-Aug-11 16:00N 45°19' W 085°18'0 0.1
2017-Aug-11 15:30N 45°19' W 085°18'0 0.0
2017-Aug-11 15:00N 45°19' W 085°18'0 0.0
2017-Aug-11 14:00N 45°19' W 085°18'0 0.0
2017-Aug-11 13:30N 45°19' W 085°18'0 0.1
2017-Aug-11 13:00N 45°19' W 085°18'0 0.0
2017-Aug-11 12:30N 45°19' W 085°18'0 0.0
2017-Aug-11 12:00N 45°19' W 085°18'0 0.0
2017-Aug-11 11:30N 45°19' W 085°18'0 0.0
2017-Aug-11 11:00N 45°19' W 085°18'0 0.0
2017-Aug-11 10:30N 45°19' W 085°18'0 0.0
2017-Aug-11 10:00N 45°19' W 085°18'0 0.0
2017-Aug-11 09:30N 45°19' W 085°18'0 0.1
2017-Aug-11 09:00N 45°19' W 085°18'2 3.2
2017-Aug-11 08:30N 45°20' W 085°19'5 9.0
2017-Aug-11 08:00N 45°18' W 085°25'  

Dump ship's entire track history